M I D A S
Marine Information and Data Acquisition System
Tripno 230 of the Zeeleeuw from 2002-03-26 07:41:28 to 2002-03-26 14:18:32
Back to CruiseResearch ActivitiesStationsMapUnderway DataData graphs

EquipmentUnitsComment
TimeDGPSUTC
LatitudeDGPSDM.mWGS84
LongitudeDGPSDM.mWGS84
HeadingGyrodeg 
SOGDGPSknotsSpeed over ground
COGDGPSdegCourse over ground
DepthEcho soundermeters200 kHz
Missing or incorrect values are displayed as -999
Navigation data collected by the RV Zeeleeuw from 2002-03-26 07:41:28 to 2002-03-26 14:18:32
Time Latitude Longitude Heading SOG COG Depth
2002-03-26 07:42:30 51°13.688 2°55.905 118   192.7 8.8
2002-03-26 07:43:30 51°13.686 2°55.905 108.7   178.3 8.8
2002-03-26 07:44:31 51°13.691 2°55.872 102.5 2.7 284.1 -999
2002-03-26 07:45:31 51°13.699 2°55.788 88.3 3.4 273.4 -999
2002-03-26 07:46:30 51°13.693 2°55.718 70.2 2.3 258.5 13.9
2002-03-26 07:47:30 51°13.733 2°55.715 351.2 4.4 348.1 10.9
2002-03-26 07:48:30 51°13.821 2°55.653 337.3 6.5 333 11
2002-03-26 07:49:30 51°13.938 2°55.561 339.3 8.9 334.6 10.6
2002-03-26 07:50:30 51°14.069 2°55.467 339.7 7.6 335.4 10.6
2002-03-26 07:51:30 51°14.188 2°55.364 330.3 9.2 327.2 10.9
2002-03-26 07:52:29 51°14.307 2°55.182 311 10.4 307.9 10.8
2002-03-26 07:53:30 51°14.43 2°54.975 329 11 324.3 10.8
2002-03-26 07:54:30 51°14.585 2°54.805 330.5 11.6 325.3 10.3
2002-03-26 07:55:30 51°14.746 2°54.629 332 11.8 326.7 10.4
2002-03-26 07:56:30 51°14.921 2°54.482 337.2 11.9 332.2 9.9
2002-03-26 07:57:30 51°15.097 2°54.327 337.7 12.5 332.3 9.4
2002-03-26 07:58:30 51°15.286 2°54.156 336.3 13.4 329.5 10
2002-03-26 07:59:30 51°15.482 2°53.979 336.3 13.6 330.3 10.8
2002-03-26 08:00:30 51°15.679 2°53.799 335.5 13.7 328.6 11.7
2002-03-26 08:01:30 51°15.876 2°53.62 336.5 13.6 330.6 12.4
2002-03-26 08:02:30 51°16.072 2°53.44 337.3 13.7 329.9 12.8
2002-03-26 08:03:30 51°16.269 2°53.259 336.3 13.6 330.2 13.2
2002-03-26 08:04:29 51°16.46 2°53.089 335.3 13.3 331.1 13.1
2002-03-26 08:05:29 51°16.652 2°52.919 336.8 13.2 331.4 12.3
2002-03-26 08:06:30 51°16.846 2°52.747 337.5 13 332 10.5
2002-03-26 08:07:30 51°17.044 2°52.6 342 13.2 336.3 10.7
2002-03-26 08:08:30 51°17.245 2°52.463 340.5 13.2 335.3 11.2
2002-03-26 08:09:29 51°17.452 2°52.371 359.2 13.2 353.8 11.4
2002-03-26 08:10:30 51°17.673 2°52.34 359.5 13.1 353.2 11.3
2002-03-26 08:11:30 51°17.891 2°52.319 1.2 13.1 357.2 11.6
2002-03-26 08:12:30 51°18.109 2°52.312 9.2 13.1 4 11.8
2002-03-26 08:13:30 51°18.252 2°52.545 69.7 13.1 67.4 12.1
2002-03-26 08:14:30 51°18.374 2°52.835 63.8 13.4 60.3 12.2
2002-03-26 08:15:30 51°18.459 2°53.165 70.8 13.5 67.8 12.3
2002-03-26 08:16:30 51°18.546 2°53.493 69.2 13.4 66.1 12.3
2002-03-26 08:17:30 51°18.625 2°53.826 71.8 13.5 69 12.3
2002-03-26 08:18:30 51°18.707 2°54.158 71 13.4 68 12.3
2002-03-26 08:19:30 51°18.788 2°54.489 72 13.4 68.8 12.4
2002-03-26 08:20:30 51°18.865 2°54.823 73 13.4 69.8 12.3
2002-03-26 08:21:30 51°18.935 2°55.164 74.7 13.5 71.6 12.2
2002-03-26 08:22:30 51°19.007 2°55.505 74.7 13.6 71.3 12.2
2002-03-26 08:23:30 51°19.08 2°55.846 75 13.6 71.2 12
2002-03-26 08:24:30 51°19.154 2°56.188 74.5 13.6 71.1 11.8
2002-03-26 08:25:30 51°19.228 2°56.528 74.7 13.5 70.8 11.8
2002-03-26 08:26:30 51°19.303 2°56.869 74.8 13.6 70.9 11.7
2002-03-26 08:27:30 51°19.378 2°57.211 74.7 13.6 71.2 11.5
2002-03-26 08:28:30 51°19.452 2°57.554 74.3 13.6 70.8 11.4
2002-03-26 08:29:30 51°19.528 2°57.897 74.2 13.7 70.8 11.3
2002-03-26 08:30:30 51°19.602 2°58.242 74.3 13.7 70.5 11
2002-03-26 08:31:30 51°19.676 2°58.586 75 13.7 71.4 11.1
2002-03-26 08:32:30 51°19.752 2°58.932 74.3 13.8 71.1 10.9
2002-03-26 08:33:30 51°19.827 2°59.279 74.3 13.9 70.5 10.8
2002-03-26 08:34:30 51°19.905 2°59.625 71.8 13.9 68 10.7
2002-03-26 08:35:30 51°19.995 2°59.966 71 13.9 67.7 10.6
2002-03-26 08:36:30 51°20.083 3°0.311 71.7 14 67.9 10.6
2002-03-26 08:37:30 51°20.171 3°0.656 71.5 14 67.7 10.5
2002-03-26 08:38:29 51°20.258 3°0.997 71.7 14.1 67.9 10.6
2002-03-26 08:39:30 51°20.349 3°1.352 71.7 14.2 67.9 10.8
2002-03-26 08:40:30 51°20.442 3°1.694 68.8 14 65.3 10.6
2002-03-26 08:41:30 51°20.537 3°2.033 69.3 14 66.1 10.7
2002-03-26 08:42:30 51°20.633 3°2.371 69.7 14 65.6 10.8
2002-03-26 08:43:30 51°20.73 3°2.712 70 14.1 65.9 10.8
2002-03-26 08:44:30 51°20.829 3°3.053 69.3 14.1 65.1 11
2002-03-26 08:45:30 51°20.932 3°3.391 68.3 14.1 64.6 10.9
2002-03-26 08:46:29 51°21.033 3°3.724 68.5 14.1 64.4 11.1
2002-03-26 08:47:30 51°21.136 3°4.07 68.7 14.2 64.4 11.2
2002-03-26 08:48:30 51°21.238 3°4.413 68.5 14.3 64.5 11.7
2002-03-26 08:49:30 51°21.34 3°4.755 68.8 14.3 64.3 11.8
2002-03-26 08:50:30 51°21.443 3°5.098 68 14.3 64.3 11.9
2002-03-26 08:51:30 51°21.544 3°5.441 69.5 14.3 65.4 12
2002-03-26 08:52:29 51°21.645 3°5.779 69.2 14.3 64.6 12.2
2002-03-26 08:53:30 51°21.735 3°6.137 72.3 14.3 68 12.5
2002-03-26 08:54:30 51°21.827 3°6.491 71.8 14.4 67.6 12.9
2002-03-26 08:55:30 51°21.917 3°6.848 74.3 14.5 69.7 12.9
2002-03-26 08:56:30 51°21.979 3°7.221 81 14.5 76.4 13.1
2002-03-26 08:57:30 51°22.04 3°7.596 80.2 14.6 75.6 13.3
2002-03-26 08:58:30 51°22.127 3°7.952 53 14.2 51.5 13.4
2002-03-26 08:59:30 51°22.315 3°8.187 38 14.5 35.7 13.8
2002-03-26 09:00:30 51°22.507 3°8.422 45.3 14.5 41.3 14.1
2002-03-26 09:01:30 51°22.659 3°8.722 61.3 14.6 57.3 14.4
2002-03-26 09:02:30 51°22.762 3°9.07 75.7 14.5 69.6 14.6
2002-03-26 09:03:30 51°22.803 3°9.449 89.8 14.5 84.6 14.8
2002-03-26 09:04:30 51°22.832 3°9.824 85.7 14.1 81.5 19.2
2002-03-26 09:05:30 51°22.859 3°10.208 89.8 14.7 84.7 16.1
2002-03-26 09:06:29 51°22.871 3°10.596 96 14.8 90.2 15.5
2002-03-26 09:07:30 51°22.863 3°10.996 96.5 14.9 91.3 15.4
2002-03-26 09:08:30 51°22.858 3°11.394 96.5 15 91.1 15.3
2002-03-26 09:09:30 51°22.851 3°11.792 97 14.9 92 15
2002-03-26 09:10:29 51°22.843 3°12.183 96 15 92.1 14.5
2002-03-26 09:11:30 51°22.833 3°12.591 97 15.3 92.5 14.4
2002-03-26 09:12:30 51°22.831 3°12.995 90.2 15.2 86.6 13.3
2002-03-26 09:13:30 51°22.846 3°13.398 91.3 15.2 87.2 12.8
2002-03-26 09:14:30 51°22.856 3°13.805 91.7 15.3 87.7 12.4
2002-03-26 09:15:30 51°22.873 3°14.209 87 15.3 83.9 12
2002-03-26 09:16:30 51°22.902 3°14.612 86.5 15.3 83.1 11.5
2002-03-26 09:17:30 51°22.932 3°15.018 86.8 15.4 83.4 10.9
2002-03-26 09:18:30 51°22.976 3°15.421 80.2 15.4 77.8 10.6
2002-03-26 09:19:30 51°23.025 3°15.823 84.5 15.5 81.1 10.5
2002-03-26 09:20:30 51°23.067 3°16.228 83.7 15.5 80.7 10.1
2002-03-26 09:21:29 51°23.159 3°16.584 42.5 14.5 46.7 10.2
2002-03-26 09:22:30 51°23.374 3°16.749 19.2 14.3 21.4 10.6
2002-03-26 09:23:30 51°23.604 3°16.848 12.3 14.4 14.9 12
2002-03-26 09:24:30 51°23.835 3°16.941 11.2 14.4 14.3 13.6
2002-03-26 09:25:30 51°24.067 3°17.044 11.2 14.4 15.4 15.2
2002-03-26 09:26:29 51°24.294 3°17.152 12.8 14.5 16.4 17.5
2002-03-26 09:27:30 51°24.53 3°17.234 4.7 14.2 9.8 19.6
2002-03-26 09:28:29 51°24.756 3°17.278 359 13.8 5.5 17
2002-03-26 09:29:30 51°24.986 3°17.308 357.8 13.6 3.6 15.2
2002-03-26 09:30:30 51°25.203 3°17.273 338.8 12.7 345 12.9
2002-03-26 09:31:30 51°25.382 3°17.116 323 12.3 325.7 11.7
2002-03-26 09:32:30 51°25.523 3°16.885 307.5 12.1 307.4 11.3
2002-03-26 09:33:30 51°25.652 3°16.633 312 12.3 311.8 10.6
2002-03-26 09:34:29 51°25.786 3°16.393 312.5 12.3 312.1 10.1
2002-03-26 09:35:30 51°25.924 3°16.144 312.8 12.3 311.4 9.7
2002-03-26 09:36:30 51°26.059 3°15.898 312.3 12.3 310.7 8.9
2002-03-26 09:37:30 51°26.192 3°15.655 312.7 12.1 310.9 8.3
2002-03-26 09:38:30 51°26.324 3°15.411 312.2 12.1 310.4 8.2
2002-03-26 09:39:30 51°26.458 3°15.163 312.7 12.4 310.9 8.8
2002-03-26 09:40:30 51°26.592 3°14.908 312.5 12.6 310.1 9.3
2002-03-26 09:41:30 51°26.726 3°14.652 312.7 12.6 309.9 9.7
2002-03-26 09:42:30 51°26.86 3°14.397 312.7 12.5 310.4 9.9
2002-03-26 09:43:30 51°26.993 3°14.143 312.5 12.4 310 10.1
2002-03-26 09:44:29 51°27.123 3°13.893 312.7 12.4 309.6 10.2
2002-03-26 09:45:30 51°27.256 3°13.635 312.5 12.3 309.4 10.4
2002-03-26 09:46:30 51°27.385 3°13.381 312.3 12.3 309.1 10.5
2002-03-26 09:47:29 51°27.512 3°13.131 312.8 12.3 309.3 10.6
2002-03-26 09:48:30 51°27.643 3°12.873 312.2 12.3 308.7 10.8
2002-03-26 09:49:30 51°27.772 3°12.618 312.5 12.3 308.8 11
2002-03-26 09:50:30 51°27.898 3°12.358 311.8 12.4 307.8 11.2
2002-03-26 09:51:30 51°28.024 3°12.096 311.2 12.4 307.1 11.4
2002-03-26 09:52:30 51°28.15 3°11.833 311.7 12.5 307.4 11.8
2002-03-26 09:53:30 51°28.277 3°11.569 311.8 12.6 307.9 12.2
2002-03-26 09:54:30 51°28.406 3°11.303 311.8 12.6 307.4 12.9
2002-03-26 09:55:30 51°28.535 3°11.033 311.5 12.8 307.7 13.8
2002-03-26 09:56:30 51°28.666 3°10.762 311.7 12.9 307.9 14.4
2002-03-26 09:57:30 51°28.798 3°10.49 311.8 13 308.1 15.2
2002-03-26 09:58:31 51°28.905 3°10.193 286.7 12.6 283 16.2
2002-03-26 09:59:30 51°28.856 3°9.871 257.2 13 251.5 16.8
2002-03-26 10:00:30 51°28.793 3°9.539 259.2 13 253.8 17.2
2002-03-26 10:01:30 51°28.72 3°9.212 254.2 13 248.9 17.4
2002-03-26 10:02:30 51°28.638 3°8.89 251.2 13 246.5 17.3
2002-03-26 10:03:30 51°28.552 3°8.574 251.3 12.9 246.3 16.6
2002-03-26 10:04:30 51°28.464 3°8.264 250.8 12.8 245.8 15.4
2002-03-26 10:05:30 51°28.377 3°7.954 250.3 12.7 245.5 16.5
2002-03-26 10:06:30 51°28.286 3°7.646 247.8 12.8 243.2 16.9
2002-03-26 10:07:30 51°28.194 3°7.34 248.2 12.8 244.1 17.1
2002-03-26 10:08:30 51°28.102 3°7.035 248.2 12.7 244.2 17.2
2002-03-26 10:09:30 51°28.007 3°6.733 247.8 12.7 243.6 17.2
2002-03-26 10:10:30 51°27.913 3°6.431 248 12.7 244 16.9
2002-03-26 10:11:30 51°27.787 3°6.168 222.2 12.5 217.1 16.9
2002-03-26 10:12:30 51°27.592 3°6.043 199.5 12.8 192.6 16.7
2002-03-26 10:13:30 51°27.392 3°6.126 148.5 13.2 142.6 15.7
2002-03-26 10:14:30 51°27.262 3°6.428 132.5 14 124.9 15.8
2002-03-26 10:15:30 51°27.13 3°6.737 132.5 14.1 124.8 15.2
2002-03-26 10:16:30 51°26.993 3°7.04 135.2 14 127.3 14.5
2002-03-26 10:17:30 51°26.851 3°7.338 135 14 127 13.9
2002-03-26 10:18:30 51°26.709 3°7.638 134.5 14.1 127 13.3
2002-03-26 10:19:30 51°26.567 3°7.94 134.3 14.2 127.1 12.9
2002-03-26 10:20:30 51°26.424 3°8.242 134.5 14.2 127.2 13.1
2002-03-26 10:21:30 51°26.282 3°8.546 134.8 14.2 127 12.5
2002-03-26 10:22:30 51°26.141 3°8.849 134.5 14.2 126.3 12
2002-03-26 10:23:30 51°26 3°9.151 134.7 14.2 127 11.1
2002-03-26 10:24:30 51°25.858 3°9.452 134.8 14.1 127.1 10.4
2002-03-26 10:25:30 51°25.715 3°9.753 134.3 14.2 127.1 9.9
2002-03-26 10:26:29 51°25.575 3°10.049 134.7 14.1 127.2 9.8
2002-03-26 10:27:30 51°25.421 3°10.342 141.5 14.1 134.3 10.2
2002-03-26 10:28:30 51°25.237 3°10.572 154.8 13.9 147 11
2002-03-26 10:29:30 51°25.03 3°10.736 166.8 13.8 158.8 11.8
2002-03-26 10:30:30 51°24.814 3°10.74 207.7 12.8 199.4 13
2002-03-26 10:31:30 51°24.679 3°10.505 246 12 241.1 13.6
2002-03-26 10:32:30 51°24.603 3°10.221 260.5 11.5 257.5 13.7
2002-03-26 10:33:30 51°24.619 3°9.915 279.5 11.8 279.2 13.4
2002-03-26 10:34:30 51°24.662 3°9.601 284 12.3 281.3 12.8
2002-03-26 10:35:30 51°24.722 3°9.283 291.7 12.6 290.4 12.3
2002-03-26 10:36:30 51°24.807 3°8.977 298.5 12.6 297 11.8
2002-03-26 10:37:30 51°24.899 3°8.675 297 12.5 296.1 11.3
2002-03-26 10:38:29 51°24.988 3°8.377 296.5 12.7 295.7 10.8
2002-03-26 10:39:30 51°25.082 3°8.069 297 12.7 296.5 10.3
2002-03-26 10:40:29 51°25.175 3°7.77 295.7 12.8 295.7 10.7
2002-03-26 10:41:30 51°25.271 3°7.462 296.7 12.7 297 11.4
2002-03-26 10:42:30 51°25.369 3°7.159 296.3 12.9 297.2 12.2
2002-03-26 10:43:30 51°25.469 3°6.853 296.5 13 297.5 12.8
2002-03-26 10:44:30 51°25.568 3°6.544 296.7 13.1 297.2 13
2002-03-26 10:45:30 51°25.668 3°6.235 296.3 13.1 297.2 12.8
2002-03-26 10:46:30 51°25.765 3°5.926 295.2 12.9 296.3 12.6
2002-03-26 10:47:30 51°25.859 3°5.614 294.3 13 295.6 13.2
2002-03-26 10:48:29 51°25.953 3°5.308 294.3 13 296.4 13.5
2002-03-26 10:49:30 51°26.053 3°4.992 294.8 13 296.9 13.8
2002-03-26 10:50:29 51°26.106 3°4.669 276.7 12.8 277.6 14.1
2002-03-26 10:51:30 51°26.155 3°4.331 283.3 12.8 285.6 12.9
2002-03-26 10:52:29 51°26.211 3°4.007 282.3 12.7 285.9 13.2
2002-03-26 10:53:30 51°26.258 3°3.673 280.2 12.7 282.6 12.6
2002-03-26 10:54:29 51°26.301 3°3.346 281.2 12.8 281.8 13.5
2002-03-26 10:55:30 51°26.344 3°3.007 280.5 12.8 281.1 13.9
2002-03-26 10:56:30 51°26.386 3°2.672 280.7 12.8 281.6 13.5
2002-03-26 10:57:29 51°26.429 3°2.344 282 12.8 283.2 14
2002-03-26 10:58:30 51°26.477 3°2.009 281.3 12.7 282.6 13.5
2002-03-26 10:59:30 51°26.516 3°1.68 277.5 12.6 279 14.3
2002-03-26 11:00:30 51°26.554 3°1.346 278.3 12.8 280 17.1
2002-03-26 11:01:30 51°26.592 3°1.011 278.7 12.8 280.8 19.4
2002-03-26 11:02:30 51°26.632 3°0.676 277.5 12.9 280 24.5
2002-03-26 11:03:30 51°26.67 3°0.338 277.2 12.9 280.2 27.3
2002-03-26 11:04:30 51°26.703 2°60 275.5 12.8 278.3 27.4
2002-03-26 11:05:30 51°26.735 2°59.661 275.7 12.9 279 26.9
2002-03-26 11:06:30 51°26.767 2°59.325 275.3 12.8 278.3 25.5
2002-03-26 11:07:30 51°26.8 2°58.988 275.5 12.8 279 23.6
2002-03-26 11:08:30 51°26.834 2°58.652 275.7 12.7 279.4 20
2002-03-26 11:09:30 51°26.867 2°58.317 275.3 12.7 278.9 17.3
2002-03-26 11:10:30 51°26.9 2°57.982 277.2 12.8 280.3 19.9
2002-03-26 11:11:30 51°26.936 2°57.645 277.2 12.9 279.1 20.3
2002-03-26 11:12:30 51°26.966 2°57.309 277.2 12.8 278.6 22.9
2002-03-26 11:13:30 51°26.996 2°56.972 276.5 12.8 278.3 24.3
2002-03-26 11:14:30 51°27.027 2°56.638 276.7 12.6 278.5 22.6
2002-03-26 11:15:29 51°27.058 2°56.309 276.3 12.7 278.1 29.1
2002-03-26 11:16:30 51°27.091 2°55.966 276.8 12.8 279.2 30.2
2002-03-26 11:17:30 51°27.127 2°55.629 280.7 12.9 282.8 32.3
2002-03-26 11:18:30 51°27.172 2°55.296 278 12.7 280 31.2
2002-03-26 11:19:30 51°27.211 2°54.964 278.5 12.7 281.4 30.7
2002-03-26 11:20:30 51°27.255 2°54.633 280.3 12.7 283.4 31.5
2002-03-26 11:21:30 51°27.36 2°54.337 313.7 13.2 316.2 30.1
2002-03-26 11:22:29 51°27.549 2°54.145 326 13.8 327.9 27.8
2002-03-26 11:23:29 51°27.742 2°53.951 326.7 13.8 327.8 24.2
2002-03-26 11:24:29 51°27.933 2°53.754 327 13.6 327.5 24.1
2002-03-26 11:25:30 51°28.129 2°53.561 328.5 13.6 329 22.1
2002-03-26 11:26:29 51°28.323 2°53.383 328.5 13.6 329.8 23
2002-03-26 11:27:29 51°28.517 2°53.197 329.5 13.6 330.1 26.7
2002-03-26 11:28:30 51°28.713 2°53.009 327.7 13.5 328.6 28.1
2002-03-26 11:29:30 51°28.907 2°52.829 329 13.5 330.7 28.5
2002-03-26 11:30:30 51°29.1 2°52.649 328.3 13.5 329.7 30.3
2002-03-26 11:31:30 51°29.294 2°52.468 327.8 13.5 329.6 32.1
2002-03-26 11:32:30 51°29.42 2°52.232 272.3 11.3 272.9 32.6
2002-03-26 11:33:30 51°29.321 2°51.966 241.5 12.1 238.7 33.1
2002-03-26 11:34:30 51°29.23 2°51.678 245.7 12.1 243.2 32.6
2002-03-26 11:35:30 51°29.103 2°51.441 217.3 12.1 212.4 31.6
2002-03-26 11:36:30 51°28.913 2°51.315 204.7 12.5 198.7 31.4
2002-03-26 11:37:30 51°28.712 2°51.236 205.7 12.5 198.4 29.9
2002-03-26 11:38:30 51°28.542 2°51.059 228.5 12 224 29.5
2002-03-26 11:39:29 51°28.477 2°50.767 265.7 12.1 265 29.4
2002-03-26 11:40:30 51°28.474 2°50.436 278.7 12.4 278.1 29.9
2002-03-26 11:41:30 51°28.534 2°50.115 287.3 12.6 287.6 29.4
2002-03-26 11:42:30 51°28.598 2°49.796 287.7 12.6 288.4 27.7
2002-03-26 11:43:30 51°28.649 2°49.476 279.5 12.3 279.7 32.1
2002-03-26 11:44:30 51°28.659 2°49.15 269 12.2 268.1 31.3
2002-03-26 11:45:29 51°28.645 2°48.834 263.7 12.1 262.9 33.8
2002-03-26 11:46:30 51°28.601 2°48.515 255.5 12 253.8 34.5
2002-03-26 11:47:30 51°28.484 2°48.272 215 11.8 210.1 32.9
2002-03-26 11:48:31 51°28.292 2°48.357 157.2 13 147 29.7
2002-03-26 11:49:30 51°28.105 2°48.516 161.2 12.9 151.8 29.9
2002-03-26 11:50:30 51°27.912 2°48.673 161 12.8 151.9 30
2002-03-26 11:51:30 51°27.723 2°48.848 158.2 13.2 149.8 26.8
2002-03-26 11:52:30 51°27.528 2°49.018 159.7 13.4 151.9 27.2
2002-03-26 11:53:29 51°27.336 2°49.185 158.3 13.4 150.7 26.8
2002-03-26 11:54:30 51°27.136 2°49.353 161 13.2 153.2 25.7
2002-03-26 11:55:29 51°26.943 2°49.503 162 13.1 153.3 23.5
2002-03-26 11:56:30 51°26.741 2°49.669 158 13.4 149.3 19.8
2002-03-26 11:57:30 51°26.55 2°49.85 159.5 13.3 150.8 25.4
2002-03-26 11:58:30 51°26.362 2°50.031 159 13.1 149.9 25.4
2002-03-26 11:59:30 51°26.178 2°50.215 156.3 13.1 146.5 25.4
2002-03-26 12:00:30 51°25.98 2°50.312 194.8 12.2 186.1 24.9
2002-03-26 12:01:30 51°25.852 2°50.1 250.7 11.7 248.8 24.9
2002-03-26 12:02:30 51°25.759 2°49.821 244.2 11.9 240.7 25.2
2002-03-26 12:03:30 51°25.662 2°49.546 243.7 11.8 239.6 25
2002-03-26 12:04:29 51°25.567 2°49.276 243.8 11.8 241.5 25.2
2002-03-26 12:05:29 51°25.468 2°49.003 241.7 11.8 239.3 25.8
2002-03-26 12:06:29 51°25.368 2°48.729 241.8 11.9 239.6 29.2
2002-03-26 12:07:29 51°25.269 2°48.45 243.5 12.1 241.2 31.6
2002-03-26 12:08:29 51°25.164 2°48.174 240.5 12.2 237.3 31.9
2002-03-26 12:09:29 51°25.059 2°47.898 243.8 12.2 241.4 30.5
2002-03-26 12:10:30 51°24.958 2°47.612 240.8 12.1 238.3 32.1
2002-03-26 12:11:30 51°24.849 2°47.336 239.3 12.2 238 31.6
2002-03-26 12:12:30 51°24.743 2°47.058 242 12.2 238.3 31.8
2002-03-26 12:13:29 51°24.635 2°46.786 240 12.4 238 30.5
2002-03-26 12:14:30 51°24.612 2°46.474 292.7 12.4 293.2 30.3
2002-03-26 12:15:30 51°24.792 2°46.291 330 13.4 332.4 27.1
2002-03-26 12:16:30 51°24.989 2°46.119 331.3 13.5 332.5 26.1
2002-03-26 12:17:30 51°25.19 2°45.959 334.2 13.5 334.7 26.4
2002-03-26 12:18:30 51°25.394 2°45.804 333.2 13.5 334 25.9
2002-03-26 12:19:30 51°25.598 2°45.648 333.8 13.6 334 26.9
2002-03-26 12:20:29 51°25.8 2°45.496 335.8 13.7 336.4 27.8
2002-03-26 12:21:29 51°26.006 2°45.345 333.5 13.5 333.5 27.7
2002-03-26 12:22:29 51°26.207 2°45.181 333 13.5 333.6 29.2
2002-03-26 12:23:30 51°26.414 2°45.025 335.3 13.6 335.8 29.3
2002-03-26 12:24:30 51°26.615 2°44.867 332.5 13.5 333.2 30.2
2002-03-26 12:25:30 51°26.819 2°44.712 334.8 13.5 335.2 30
2002-03-26 12:26:29 51°27.015 2°44.553 332.5 13.4 333 27.2
2002-03-26 12:27:30 51°27.174 2°44.323 293.8 12.5 294.7 25
2002-03-26 12:28:30 51°27.153 2°44.005 249 12.4 247 26.1
2002-03-26 12:29:30 51°27.082 2°43.69 252.3 12.5 250.9 26.4
2002-03-26 12:30:30 51°27.015 2°43.373 251 12.5 249.9 30.3
2002-03-26 12:31:30 51°26.942 2°43.059 251 12.6 248.7 31.4
2002-03-26 12:32:30 51°26.87 2°42.745 251.8 12.5 250.4 30.6
2002-03-26 12:33:30 51°26.798 2°42.434 253.2 12.5 251.3 33.2
2002-03-26 12:34:30 51°26.728 2°42.123 250.3 12.4 248.8 31.9
2002-03-26 12:35:30 51°26.659 2°41.81 252.3 12.5 251.5 31.7
2002-03-26 12:36:29 51°26.58 2°41.511 246.8 12.3 244.7 31
2002-03-26 12:37:30 51°26.488 2°41.21 243.3 12.4 243.3 31.4
2002-03-26 12:38:30 51°26.376 2°40.935 238.2 12.4 235.5 32.4
2002-03-26 12:39:30 51°26.253 2°40.672 234.8 12.3 232.1 32.4
2002-03-26 12:40:30 51°26.062 2°40.59 183 12.7 177.6 31.9
2002-03-26 12:41:29 51°25.869 2°40.725 160 13.1 154.1 30.3
2002-03-26 12:42:30 51°25.663 2°40.876 160.5 13.3 154.5 28.1
2002-03-26 12:43:30 51°25.464 2°41.021 163.5 13.3 158.5 28.8
2002-03-26 12:44:29 51°25.262 2°41.151 165 13.2 157.5 28.9
2002-03-26 12:45:30 51°25.056 2°41.297 162.8 13.2 157 25.5
2002-03-26 12:46:30 51°24.856 2°41.439 163.5 13.2 157.5 27.6
2002-03-26 12:47:30 51°24.66 2°41.582 161.5 13 155.4 25.8
2002-03-26 12:48:29 51°24.468 2°41.72 162.5 12.9 155.7 28.9
2002-03-26 12:49:30 51°24.265 2°41.864 162 13 154.3 26.5
2002-03-26 12:50:30 51°24.066 2°42.018 161.2 13.3 154.3 28
2002-03-26 12:51:29 51°23.871 2°42.163 164.8 13.2 157.4 27.3
2002-03-26 12:52:29 51°23.667 2°42.275 169.8 13.1 163.5 26.7
2002-03-26 12:53:30 51°23.457 2°42.28 207.7 12.6 203.3 28.7
2002-03-26 12:54:30 51°23.283 2°42.095 220.2 12.8 216.8 29.1
2002-03-26 12:55:29 51°23.111 2°41.91 216 12.6 213.9 28.8
2002-03-26 12:56:30 51°22.94 2°41.706 224 12.6 220.1 29.5
2002-03-26 12:57:30 51°22.774 2°41.5 221.2 12.8 216.2 29.6
2002-03-26 12:58:30 51°22.606 2°41.289 226.2 12.9 219.2 30.4
2002-03-26 12:59:30 51°22.437 2°41.083 221.3 12.7 217.5 30.2
2002-03-26 13:00:30 51°22.271 2°40.869 223.2 12.8 219.7 29.4
2002-03-26 13:01:30 51°22.101 2°40.664 221.5 12.9 217 28.9
2002-03-26 13:02:30 51°21.934 2°40.45 222 13 217.9 27.7
2002-03-26 13:03:30 51°21.78 2°40.212 228.2 13.1 226.2 28.8
2002-03-26 13:04:30 51°21.623 2°39.979 221.8 12.9 218.7 28.2
2002-03-26 13:05:30 51°21.453 2°39.767 221.5 12.9 217.8 27.6
2002-03-26 13:06:30 51°21.286 2°39.546 221.3 13.2 218 26.2
2002-03-26 13:07:30 51°21.099 2°39.407 180.8 12.6 177.7 27.1
2002-03-26 13:08:30 51°20.896 2°39.523 163 13.1 157.7 26.5
2002-03-26 13:09:30 51°20.702 2°39.688 145.7 13.2 141.1 27
2002-03-26 13:10:30 51°20.64 2°40.013 104.7 13.5 97.8 27.7
2002-03-26 13:11:30 51°20.588 2°40.366 109.8 13.8 101.8 28.1
2002-03-26 13:12:30 51°20.528 2°40.716 109.8 13.8 105.7 28.7
2002-03-26 13:13:29 51°20.476 2°41.07 108.2 13.9 101.7 28.7
2002-03-26 13:14:30 51°20.418 2°41.43 108.8 13.9 103.8 20.5
2002-03-26 13:15:30 51°20.362 2°41.783 109 13.7 105.4 19.9
2002-03-26 13:16:30 51°20.305 2°42.135 108.5 13.8 103.9 21.2
2002-03-26 13:17:30 51°20.245 2°42.484 108.2 13.5 105.2 24.7
2002-03-26 13:18:30 51°20.185 2°42.83 110.7 13.6 107.1 26.3
2002-03-26 13:19:30 51°20.123 2°43.178 107 13.8 103.7 27.5
2002-03-26 13:20:30 51°20.069 2°43.531 107.5 13.8 103.8 27.5
2002-03-26 13:21:30 51°19.994 2°43.875 115.8 13.8 111.6 26.2
2002-03-26 13:22:30 51°19.916 2°44.214 115.8 13.5 111.9 26.3
2002-03-26 13:23:30 51°19.838 2°44.556 116.8 13.5 112.3 24.5
2002-03-26 13:24:30 51°19.765 2°44.898 115.2 13.6 109.8 21.7
2002-03-26 13:25:30 51°19.682 2°45.238 118.8 13.5 113.7 17.8
2002-03-26 13:26:30 51°19.599 2°45.577 115.5 13.9 110.4 13.4
2002-03-26 13:27:30 51°19.515 2°45.909 116.3 13.4 112.1 17.1
2002-03-26 13:28:30 51°19.429 2°46.242 117 13.5 112.3 20.1
2002-03-26 13:29:30 51°19.34 2°46.575 118.2 13.6 113.6 21.3
2002-03-26 13:30:30 51°19.239 2°46.899 122.2 13.7 118 22.3
2002-03-26 13:31:30 51°19.148 2°47.232 120.3 13.4 115.4 21.9
2002-03-26 13:32:30 51°19.049 2°47.554 121.5 13.6 116.8 20.4
2002-03-26 13:33:30 51°18.946 2°47.873 123.2 13.3 118.5 18.8
2002-03-26 13:34:30 51°18.845 2°48.187 120.5 13.4 116.7 16.1
2002-03-26 13:35:30 51°18.743 2°48.502 121.7 13.1 117.9 14
2002-03-26 13:36:30 51°18.64 2°48.809 121.7 13.2 116.4 12.2
2002-03-26 13:37:30 51°18.529 2°49.113 126.8 13.2 123.1 11.7
2002-03-26 13:38:30 51°18.418 2°49.416 125 13.3 120.6 12.5
2002-03-26 13:39:30 51°18.302 2°49.721 124.7 13.6 119.5 14.2
2002-03-26 13:40:30 51°18.191 2°50.035 124.2 13.5 119.2 14.8
2002-03-26 13:41:30 51°18.081 2°50.341 124 13.4 118.9 14.2
2002-03-26 13:42:30 51°17.971 2°50.651 125.2 13.4 120.6 13.6
2002-03-26 13:43:30 51°17.857 2°50.957 126 13.3 121.7 12.3
2002-03-26 13:44:30 51°17.749 2°51.26 123.3 13.3 118.1 11.1
2002-03-26 13:45:30 51°17.638 2°51.565 125.8 13.3 121.2 10.7
2002-03-26 13:46:30 51°17.523 2°51.864 130.3 13 125.8 11.2
2002-03-26 13:47:30 51°17.36 2°52.095 147.2 13.3 143.1 11.2
2002-03-26 13:48:30 51°17.169 2°52.283 150 13.6 146.5 10.8
2002-03-26 13:49:30 51°16.978 2°52.453 153.3 13.3 149.9 10.3
2002-03-26 13:50:30 51°16.782 2°52.623 156.2 13.4 152.2 10.5
2002-03-26 13:51:30 51°16.589 2°52.797 154 13.4 150.6 12.2
2002-03-26 13:52:30 51°16.393 2°52.969 154.5 13.6 151 12.9
2002-03-26 13:53:30 51°16.194 2°53.144 155.7 13.6 152.9 13
2002-03-26 13:54:30 51°15.997 2°53.316 154.3 13.4 151.3 12.5
2002-03-26 13:55:30 51°15.797 2°53.482 154.5 13.7 151.5 12.1
2002-03-26 13:56:30 51°15.601 2°53.658 154.2 13.4 151 11.4
2002-03-26 13:57:30 51°15.405 2°53.819 154.8 13.2 153 10.6
2002-03-26 13:58:30 51°15.208 2°53.985 152.8 13.4 150.4 9.9
2002-03-26 13:59:30 51°15.032 2°54.136 151.5 9.6 149.2 9.5
2002-03-26 14:00:30 51°14.921 2°54.265 143.8 9.4 141.3 9.5
2002-03-26 14:01:29 51°14.78 2°54.437 145.3 12 143.1 10.2
2002-03-26 14:02:28 51°14.617 2°54.636 144.3 12.4 143.8 10.2
2002-03-26 14:03:30 51°14.456 2°54.85 134.3 12 133.6 10.4
2002-03-26 14:04:30 51°14.347 2°55.084 122.7 9.9 120.5 10.5
2002-03-26 14:05:29 51°14.258 2°55.259 141 8.3 137.2 10.8
2002-03-26 14:06:30 51°14.149 2°55.387 154.2 7.9 149 10.6
2002-03-26 14:07:30 51°14.032 2°55.47 161.5 7.6 158.4 10.5
2002-03-26 14:08:31 51°13.924 2°55.548 160.8 6.7 157.9 10.6
2002-03-26 14:09:30 51°13.835 2°55.623 154.3 5.6 149.8 10.8
2002-03-26 14:10:30 51°13.771 2°55.696 145.7 4.3 140.7 10.8
2002-03-26 14:11:30 51°13.729 2°55.761 135.2 3 131.9 10.4
2002-03-26 14:12:30 51°13.707 2°55.818 117 2.5 113.3 9
2002-03-26 14:13:30 51°13.694 2°55.878 107 2.2 105.4 8.7
2002-03-26 14:14:29 51°13.688 2°55.903 124 0.4 116.3 8.7
2002-03-26 14:15:30 51°13.687 2°55.906 122.5   245.5 8.6
2002-03-26 14:16:30 51°13.688 2°55.907 125.2   23.4 8.5
2002-03-26 14:17:30 51°13.688 2°55.907 131   39.3 8.5
2002-03-26 14:18:30 51°13.687 2°55.906 130   267.2 8.5